This is the latest recevied weather packets stored in our database for station/object AE6EO. If no packets are shown the sender has not sent any weather packets the latest 10 day(s).
| Time | Temp. | Humidity | Pressure | Rain* | Wind** | Luminosity | Snow |
|---|---|---|---|---|---|---|---|
| 1777888515 | 10.56° C | 84% | 1015.2 hPa | 0 mm | - | - | - |
| 1777881917 | 12.22° C | 77% | 1015.7 hPa | 0 mm | - | - | - |
| 1777881316 | 12.22° C | 76% | 1015.7 hPa | 0 mm | - | - | - |
| 1777871716 | 13.33° C | 74% | 1015.3 hPa | 0 mm | - | - | - |
| 1777871115 | 13.33° C | 74% | 1015.3 hPa | 0 mm | - | - | - |
| 1777867516 | 13.33° C | 71% | 1014.7 hPa | 0 mm | - | - | - |
| 1777866915 | 13.33° C | 72% | 1014.7 hPa | 0 mm | - | - | - |
| 1777866317 | 13.89° C | 71% | 1014.5 hPa | 0 mm | - | - | - |
| 1777864517 | 14.44° C | 67% | 1014 hPa | 0 mm | - | - | - |
| 1777862717 | 15.56° C | 63% | 1013.6 hPa | 0 mm | - | - | - |
| 1777860337 | 16.67° C | 62% | 1013.4 hPa | 0 mm | - | - | - |
| 1777857936 | 17.78° C | 58% | 1013.3 hPa | 0 mm | - | - | - |
| 1777856116 | 18.33° C | 56% | 1013.3 hPa | 0 mm | - | - | - |
| 1777855515 | 18.89° C | 55% | 1013.2 hPa | 0 mm | - | - | - |
| 1777849515 | 17.78° C | 59% | 1013.3 hPa | 0 mm | - | - | - |
| 1777846517 | 17.78° C | 61% | 1013.4 hPa | 0 mm | - | - | - |
| 1777841115 | 17.22° C | 62% | 1013.4 hPa | 0 mm | - | - | - |
| 1777840515 | 17.22° C | 62% | 1013.6 hPa | 0 mm | - | - | - |
| 1777836316 | 17.78° C | 59% | 1013.8 hPa | 0 mm | - | - | - |
| 1777835115 | 17.78° C | 57% | 1013.9 hPa | 0 mm | - | - | - |
| 1777831515 | 16.67° C | 64% | 1014 hPa | 0 mm | - | - | - |
| 1777829718 | 15.56° C | 69% | 1014 hPa | 0 mm | - | - | - |
| 1777824917 | 13.89° C | 78% | 1014.1 hPa | 0 mm | - | - | - |
| 1777818917 | 13.33° C | 77% | 1013.2 hPa | 0 mm | - | - | - |
| 1777815915 | 13.33° C | 79% | 1012.8 hPa | 0 mm | - | - | - |
* Rain latest hour (hover to see other rain measurements)
** Current wind speed in m/s (hover to see current wind gust speed)